Aérodrome :
LOGIN :

S'inscrire | Disclaimer

   EN    FR    IT 

 










Légende :    VFR   VFR Marginal   IFR   IFR Intensif   IFR Très Intensif
Visi : 
Plafond : 
>= 8 km
>= 3000ft
5 à 8 km
1000 à 3000 ft
1500m à 5 km
500 à 1000 ft
800 à 1500m
200 à 500 ft
< 800m
< 200 ft
Symboles :   Orages  Brouillard  Fortes neiges  Fortes précipitations  Vent > 20 kt
SIGMETs :   Divers  Orages  Givrage  Turbulence  Onde Orograph.  Cendres Volcan.






- Altitude de l'aérodrome : 0 ft


ENSL - Sleipner A Platform

DERNIER METAR :
  • 151350Z AUTO 25014KT 9999 BKN022/// 13/10 Q1007 W12/S3

METARs EXPIRÉS :
  • 151320Z AUTO 24014KT 9999 FEW005/// FEW007/// BKN024/// 12/11 Q1007 W12/S3
  • 151250Z AUTO 25012KT 9999 SCT005/// OVC023/// 12/11 Q1007 W12/S3
  • 151220Z AUTO 24011KT 9999 OVC019/// 13/11 Q1007 W12/S3
  • 151150Z AUTO 25011KT 9999 OVC006/// 12/11 Q1007 W12/S3
  • 151120Z AUTO 24006KT 9999 FEW008/// OVC019/// 13/11 Q1007 W11/S3
  • 151050Z AUTO 26006KT 9999 FEW012/// OVC017/// 13/12 Q1007 W12/S3
  • 151020Z AUTO 27008KT 9999 FEW003/// OVC011/// 13/12 Q1007 W12/S3
  • 150950Z AUTO 29010KT 8000 BKN002/// 13/12 Q1007 W12/S3
  • 150920Z AUTO 30010KT 4700 HZ BKN002/// 13/12 Q1007 W12/S3

Prévision TAF périmée.



MET'MAP, la Météo Aéronautique d'un coup d'oeil ! - Copyright ORBIFLY Décembre 2007 - Disclaimer

ORBIFLY MET'MAP TEAM :

Programmation & Développement : Alexandra Zaïnal
Sur une idée originale de : Baudouin d'Aumeries
Soutien technique & logistique : Manuel Goepfert
Assistance : Marc-Olivier Méhu




SOURCES & CREDITS :

   NOAA